Estación meteorológica de Boí Taüll (Alta Ribagorça, Parc natural d'Aigüestortes)

Consulta los datos en tiempo real de la estación meteorológica de Boí Taüll





Hora UTC 15:45
Temperatura 3.3 ºC
Humedad 83.0 %
Presión 1010.4 hPa
Pluja 0.0 mm
Velocidad viento 33.8 km/h
Dirección viento

Datos diarios 2026-05-05



Hora UTC (invierno +1h; verano +2h)
Temperatura (ºC) Humedad (%) Presión (hPa) Velocidad viento (km/h) Precipitación (mm)
Hora UTC Aire Humedad Presión Vel. Dir. Vel. Max Dir. Intent. máx 5 min.
00:15 1.4 87.0 1011.1 29.0 29.0 0.0
00:30 1.3 87.0 1011.2 29.0 NNE 29.0 NNE 11.6
00:45 1.3 87.0 1011.1 29.0 29.0 SSW 0.0
01:00 1.5 87.0 1011.1 29.0 NNE 29.0 NNE 11.6
01:15 1.2 87.0 1011.2 29.0 29.0 SSW 0.0
01:30 1.1 85.0 1011.2 29.0 NNE 29.0 NNE 11.6
01:45 1.1 85.0 1011.2 29.0 29.0 SSW 0.0
02:00 1.7 80.0 1011.1 29.0 NNE 29.0 NNE 11.6
02:15 1.1 81.0 1011.0 29.0 29.0 SSW 0.0
02:30 1.4 79.0 1011.0 29.0 NNE 29.0 NNE 11.6
02:45 1.5 80.0 1011.2 29.0 29.0 WSW 0.0
03:00 1.2 80.0 1011.1 29.0 NNE 29.0 NNE 11.6
03:15 1.1 81.0 1010.9 29.0 29.0 SSW 0.0
03:30 1.4 78.0 1010.7 29.0 NNE 29.0 NNE 11.6
03:45 0.9 79.0 1010.7 29.0 29.0 SW 0.0
04:00 1.1 78.0 1010.7 29.0 NNE 29.0 NNE 11.6
04:15 1.4 77.0 1010.8 29.0 29.0 SW 0.0
04:30 1.5 76.0 1010.7 29.0 NNE 29.0 NNE 11.6
04:45 1.3 77.0 1010.8 29.0 29.0 SSW 0.0
05:00 1.5 76.0 1010.7 29.0 NNE 29.0 NNE 11.6
05:15 1.7 75.0 1011.0 29.0 29.0 W 0.0
05:30 1.7 77.0 1011.0 29.0 NNE 29.0 NNE 11.6
05:45 1.0 79.0 1010.9 29.0 29.0 SSW 0.0
06:00 1.3 79.0 1010.8 29.0 NNE 29.0 NNE 11.6
06:15 1.8 78.0 1010.8 29.0 29.0 SSW 0.0
06:30 1.9 78.0 1010.7 29.0 NNE 29.0 NNE 11.6
06:45 1.8 79.0 1010.8 3.2 29.0 NNE 0.0
07:00 2.1 78.0 1010.7 11.3 NNE 29.0 NNE 0.0
07:15 1.8 80.0 1010.7 11.3 29.0 NNE 0.0
07:30 2.2 79.0 1010.8 11.3 NNE 29.0 NNE 0.0
07:45 2.3 78.0 1010.8 11.3 29.0 NNE 0.0
08:00 2.3 80.0 1010.9 11.3 NNE 29.0 NNE 0.0
08:15 2.4 80.0 1010.8 12.9 29.0 NNE 0.0
08:30 2.6 81.0 1010.9 12.9 NNE 29.0 NNE 0.0
08:45 2.6 81.0 1011.0 14.5 29.0 NNE 0.0
09:00 2.6 81.0 1011.1 19.3 NNE 29.0 NNE 0.0
09:15 2.6 81.0 1011.1 19.3 29.0 NNE 0.0
09:30 2.8 80.0 1011.1 19.3 NNE 29.0 NNE 0.0
09:45 2.9 79.0 1011.0 19.3 29.0 NNE 0.0
10:00 2.9 77.0 1011.0 19.3 NNE 29.0 NNE 0.0
10:15 2.9 76.0 1011.2 19.3 29.0 NNE 0.0
10:30 3.0 79.0 1011.1 19.3 NNE 29.0 NNE 0.0
10:45 3.6 76.0 1011.0 19.3 29.0 NNE 0.0
11:00 3.6 75.0 1011.0 19.3 NNE 29.0 NNE 0.0
11:15 4.1 77.0 1011.1 19.3 29.0 NNE 0.0
11:30 4.1 77.0 1011.0 19.3 NNE 29.0 NNE 0.0
11:45 3.9 72.0 1011.0 19.3 29.0 NNE 0.0
12:00 4.2 70.0 1011.1 25.7 NNE 29.0 NNE 0.0
12:15 4.4 68.0 1011.1 25.7 29.0 NNE 0.0
12:30 4.8 79.0 1011.0 25.7 NNE 29.0 NNE 0.0
12:45 4.3 77.0 1011.0 25.7 29.0 NNE 0.0
13:00 4.3 79.0 1011.0 25.7 NNE 29.0 NNE 0.0
13:15 4.9 67.0 1010.9 25.7 29.0 NNE 0.0
13:30 5.3 65.0 1010.6 25.7 NNE 29.0 NNE 0.0
13:45 5.4 62.0 1010.3 25.7 29.0 NNE 0.0
14:00 6.6 63.0 1010.0 25.7 NNE 29.0 NNE 0.0
14:15 6.0 66.0 1010.1 25.7 29.0 NNE 0.0
14:30 5.2 72.0 1010.0 25.7 NNE 29.0 NNE 0.0
14:45 2.9 83.0 1010.3 33.8 33.8 NNE 0.0
15:00 3.1 82.0 1010.4 33.8 NE 33.8 NE 0.0
15:15 3.2 82.0 1010.5 33.8 33.8 N 0.0
15:30 3.3 83.0 1010.5 33.8 NE 33.8 NE 0.4
15:45 3.3 83.0 1010.4 33.8 33.8 E 0.0
Máxima 6.6 87.0 1011.2 33.8 33.8 E 11.6
Mínima 0.9 62.0 1010.0
Total 151.2